Latest Weather Observations for South Johnstone

IDQ60801

Issued at 11:02 am EST Sunday 19 April 2015 (issued every 30 minutes, with the page automatically refreshed every 10 minutes)

About weather observations | Map of weather stations | Latest weather observations for QLD | Other Formats
Station Details ID: 032037 Name: SOUTH JOHNSTONE EXP STN Lat: -17.61 Lon: 146.00 Height: 18.3 m
Data from the previous 72 hours. | See also: Recent months at South Johnstone
Date/Time
EST
Temp
°C
App
Temp
°C
Dew
Point
Rel
Hum
%
Delta-T
°C
Wind Press
QNH
hPa
Press
MSL
hPa
Rain
since 9 am
mm
Dir
 
Spd
km/h
Gust
km/h
Spd
kts
Gust
kts
19/11:00am 28.9 31.7 23.7 73 3.6 SE 15 24 8 13 1016.7 - 0.0
19/10:30am 28.5 30.4 22.8 71 3.9 E 17 26 9 14 1016.9 - 0.0
19/10:00am 27.7 30.6 23.2 76 3.1 ESE 13 20 7 11 1016.9 - 0.0
19/09:30am 27.1 31.3 24.1 84 2.1 S 9 17 5 9 1016.9 - 0.0
19/09:00am 25.8 30.8 23.8 89 1.4 SW 4 7 2 4 1016.6 1016.5 63.8
19/08:30am 24.8 29.6 23.5 92 0.9 ESE 4 13 2 7 1016.4 - 63.8
19/08:00am 24.8 30.2 23.3 91 1.0 CALM 0 0 0 0 1015.8 - 63.2
19/07:30am 24.4 28.3 22.9 91 1.0 S 7 13 4 7 1015.6 - 63.2
19/07:00am 23.9 27.2 21.8 88 1.4 SSE 7 11 4 6 1015.2 - 63.0
19/06:30am 24.2 28.7 22.9 92 0.9 WNW 4 19 2 10 1014.9 - 62.8
19/06:00am 24.3 28.3 22.7 91 1.1 SSW 6 11 3 6 1014.4 1014.3 62.8
19/05:30am 24.1 27.6 22.8 92 0.9 SE 9 11 5 6 1014.3 - 62.8
19/05:00am 24.7 28.4 22.5 87 1.5 S 7 13 4 7 1013.9 - 62.8
19/04:30am 24.1 28.7 23.2 95 0.6 SSE 4 7 2 4 1013.7 - 62.8
19/04:00am 24.8 28.9 23.2 91 1.1 S 7 13 4 7 1013.8 - 61.2
19/03:30am 25.1 29.2 23.2 89 1.3 SSE 7 17 4 9 1013.9 - 60.6
19/03:00am 24.4 28.6 23.1 92 0.9 SSE 6 7 3 4 1014.0 1013.9 60.6
19/02:30am 24.7 28.8 23.2 91 1.0 SE 7 13 4 7 1014.3 - 60.6
19/02:00am 24.8 28.9 23.3 91 1.0 SE 7 11 4 6 1014.6 - 60.6
19/01:30am 24.9 29.3 23.4 91 1.0 SE 6 9 3 5 1015.0 - 60.6
19/01:00am 24.8 29.2 23.5 92 0.9 SE 6 9 3 5 1015.3 - 60.6
19/12:30am 24.6 28.7 23.3 92 0.9 SE 7 9 4 5 1015.7 - 60.6
19/12:00am 24.8 29.0 23.2 91 1.1 SSE 6 13 3 7 1015.8 1015.7 60.6
 
Date/Time
EST
Temp
°C
App
Temp
°C
Dew
Point
Rel
Hum
%
Delta-T
°C
Wind Press
QNH
hPa
Press
MSL
hPa
Rain
since 9 am
mm
Dir
 
Spd
km/h
Gust
km/h
Spd
kts
Gust
kts
18/11:30pm 25.0 28.7 23.2 90 1.2 SSE 9 19 5 10 1015.8 - 60.6
18/11:00pm 25.1 29.0 23.6 91 1.0 SSE 9 19 5 10 1015.9 - 60.6
18/10:30pm 25.0 29.2 23.5 91 1.0 S 7 9 4 5 1016.1 - 60.6
18/10:00pm 24.6 29.8 23.6 94 0.7 S 2 9 1 5 1016.1 - 60.4
18/09:30pm 25.0 28.4 23.4 91 1.1 S 11 19 6 10 1016.2 - 59.6
18/09:00pm 25.3 29.5 23.1 87 1.5 SSE 6 11 3 6 1016.1 1016.0 58.8
18/08:30pm 25.2 29.1 23.0 87 1.5 SSE 7 11 4 6 1016.0 - 58.8
18/08:00pm 25.2 29.2 23.1 88 1.4 S 7 11 4 6 1015.6 - 58.8
18/07:30pm 24.9 28.5 23.1 90 1.2 S 9 13 5 7 1015.2 - 58.8
18/07:00pm 24.5 29.0 22.9 91 1.1 SSE 4 11 2 6 1014.9 - 58.8
18/06:30pm 24.5 28.1 23.0 91 1.0 S 9 13 5 7 1014.8 - 58.8
18/06:00pm 24.3 29.0 23.3 94 0.7 SW 4 9 2 5 1014.5 1014.4 58.6
18/05:30pm 24.4 27.4 22.6 90 1.2 S 11 17 6 9 1014.1 - 58.6
18/05:00pm 25.0 28.3 23.2 90 1.2 SE 11 20 6 11 1014.0 - 58.6
18/04:30pm 25.9 30.2 23.7 88 1.5 S 7 11 4 6 1013.7 - 57.8
18/04:00pm 25.5 30.7 23.6 89 1.3 S 2 9 1 5 1013.8 - 57.8
18/03:30pm 25.4 30.2 23.5 89 1.3 S 4 11 2 6 1013.7 - 57.8
18/03:00pm 25.2 29.5 23.6 91 1.1 SW 7 11 4 6 1013.4 1013.3 57.8
18/02:30pm 24.9 29.2 23.7 93 0.8 S 7 11 4 6 1013.9 - 57.8
18/02:00pm 24.8 30.0 24.2 96 0.4 ESE 4 9 2 5 1014.3 - 57.8
18/01:30pm 25.1 28.9 23.5 91 1.1 S 9 17 5 9 1014.4 - 50.0
18/01:00pm 24.6 29.8 23.6 94 0.7 SE 2 9 1 5 1014.9 - 50.0
18/12:30pm 25.0 27.7 22.8 87 1.5 SSE 13 24 7 13 1015.0 - 49.0
18/12:00pm 24.8 27.4 23.3 91 1.0 S 15 28 8 15 1015.2 1015.1 48.8
18/11:30am 24.3 27.7 23.4 95 0.6 SSW 11 17 6 9 1015.8 - 48.0
18/11:00am 23.6 27.7 23.2 98 0.3 WNW 7 15 4 8 1015.5 - 42.2
18/10:30am 23.6 27.2 23.0 96 0.4 WSW 9 13 5 7 1016.5 - 12.8
18/10:00am 23.6 27.0 22.7 95 0.6 NNE 9 15 5 8 1016.4 - 2.0
18/09:30am 25.1 27.7 23.3 90 1.2 S 15 22 8 12 1016.2 - 0.2
18/09:00am 25.3 28.3 23.4 89 1.3 SSW 13 22 7 12 1016.1 1016.0 14.6
18/08:30am 25.0 27.9 23.2 90 1.2 S 13 22 7 12 1015.7 - 14.4
18/08:00am 24.3 28.0 23.3 94 0.7 S 9 15 5 8 1015.5 - 14.4
18/07:30am 23.4 27.4 22.8 96 0.4 SSE 6 13 3 7 1015.4 - 14.2
18/07:00am 23.1 26.0 22.5 96 0.4 E 11 20 6 11 1015.1 - 13.6
18/06:30am 24.6 27.7 22.2 86 1.6 S 9 13 5 7 1014.2 - 3.8
18/06:00am 24.3 27.4 22.2 88 1.4 SSW 9 17 5 9 1013.9 1013.8 3.6
18/05:30am 24.1 27.4 21.8 87 1.5 SSW 7 13 4 7 1013.7 - 3.2
18/05:00am 24.1 26.0 22.0 88 1.4 SSW 15 22 8 12 1013.7 - 3.2
18/04:30am 23.7 27.8 22.2 91 1.0 S 4 11 2 6 1013.9 - 3.0
18/04:00am 23.4 26.3 22.4 94 0.7 SE 11 17 6 9 1014.0 - 3.0
18/03:30am 23.7 26.8 22.2 91 1.0 SSW 9 15 5 8 1013.6 - 2.4
18/03:00am 23.0 26.1 22.1 95 0.6 WSW 9 15 5 8 1013.7 1013.6 2.4
18/02:30am 22.8 26.4 22.0 95 0.5 W 6 9 3 5 1013.9 - 2.4
18/02:00am 22.8 26.8 22.0 95 0.5 W 4 9 2 5 1014.2 - 2.4
18/01:30am 22.7 26.2 21.9 95 0.5 W 6 11 3 6 1014.8 - 2.4
18/01:00am 22.5 25.7 21.6 95 0.6 W 7 11 4 6 1015.2 - 2.4
18/12:30am 22.5 25.6 21.4 93 0.7 WNW 7 9 4 5 1015.4 - 2.4
18/12:00am 23.2 26.3 21.1 88 1.4 WSW 6 13 3 7 1015.8 1015.7 2.4
 
Date/Time
EST
Temp
°C
App
Temp
°C
Dew
Point
Rel
Hum
%
Delta-T
°C
Wind Press
QNH
hPa
Press
MSL
hPa
Rain
since 9 am
mm
Dir
 
Spd
km/h
Gust
km/h
Spd
kts
Gust
kts
17/11:30pm 24.1 26.8 20.7 81 2.2 S 7 22 4 12 1016.0 - 2.2
17/11:00pm 22.7 26.0 21.5 93 0.8 WSW 6 11 3 6 1016.1 - 2.2
17/10:30pm 22.4 25.8 21.6 95 0.5 WSW 6 11 3 6 1016.1 - 2.2
17/10:00pm 22.4 25.5 21.5 95 0.6 WNW 7 9 4 5 1016.2 - 2.0
17/09:30pm 22.5 25.9 21.6 95 0.6 W 6 9 3 5 1016.1 - 2.0
17/09:00pm 22.9 26.8 21.8 93 0.7 NW 4 11 2 6 1016.0 1015.9 2.0
17/08:30pm 24.3 27.6 21.4 84 1.9 SSW 6 9 3 5 1015.7 - 1.2
17/08:00pm 25.1 28.0 21.0 78 2.7 SSW 7 13 4 7 1015.4 - 1.2
17/07:30pm 25.7 27.9 20.5 73 3.4 SSW 9 13 5 7 1015.1 - 1.0
17/07:00pm 25.4 27.6 20.3 73 3.3 S 9 15 5 8 1014.9 - 1.0
17/06:30pm 25.6 27.8 20.4 73 3.4 S 9 17 5 9 1014.5 - 1.0
17/06:00pm 25.3 28.0 20.6 75 3.1 S 7 11 4 6 1014.4 1014.3 1.0
17/05:30pm 25.9 29.0 21.4 76 3.0 SE 7 13 4 7 1014.1 - 1.0
17/05:00pm 26.4 28.2 21.1 72 3.5 SE 13 20 7 11 1014.0 - 1.0
17/04:30pm 26.7 27.8 20.4 68 4.1 SE 15 22 8 12 1013.9 - 1.0
17/04:00pm 26.7 29.0 21.4 72 3.5 SSE 11 26 6 14 1013.7 - 1.0
17/03:30pm 25.0 26.0 21.0 78 2.6 SE 17 33 9 18 1013.9 - 0.8
17/03:00pm 27.5 27.2 20.3 65 4.7 SE 22 32 12 17 1013.8 1013.7 0.8
17/02:30pm 27.6 27.8 20.1 63 4.9 SE 19 32 10 17 1014.0 - 0.8
17/02:00pm 27.1 27.1 20.1 65 4.6 SSE 20 33 11 18 1014.4 - 0.8
17/01:30pm 27.1 28.2 22.4 75 3.2 SE 20 32 11 17 1014.5 - 0.8
17/01:00pm 24.9 25.8 21.9 83 2.0 S 20 32 11 17 1015.1 - 0.8
17/12:30pm 26.0 27.1 22.3 80 2.5 ESE 20 32 11 17 1015.4 - 0.0
17/12:00pm 27.7 27.5 20.6 65 4.7 SE 22 33 12 18 1015.8 1015.7 0.0
17/11:30am 27.9 28.3 20.6 64 4.8 SSE 19 33 10 18 1016.3 - 0.0
17/11:00am 28.0 28.3 20.4 63 5.0 SE 19 32 10 17 1016.8 - 0.0
17/10:30am 27.7 27.7 20.2 63 4.9 SE 20 30 11 16 1017.2 - 0.0
17/10:00am 27.7 28.0 20.4 64 4.8 SE 19 32 10 17 1017.4 - 0.0
17/09:30am 27.1 27.4 20.4 66 4.4 SE 19 28 10 15 1017.4 - 0.0
17/09:00am 26.3 29.6 21.8 76 3.0 SSE 7 15 4 8 1017.6 1017.5 9.4
17/08:30am 25.6 28.9 21.4 77 2.8 S 6 9 3 5 1017.4 - 9.4
17/08:00am 25.5 27.9 20.9 75 3.0 SSE 9 17 5 9 1017.3 - 9.4
17/07:30am 25.6 28.4 20.9 75 3.1 S 7 11 4 6 1017.0 - 9.4
17/07:00am 24.4 26.5 20.2 77 2.7 S 9 17 5 9 1016.9 - 9.4
17/06:30am 23.5 26.1 20.4 83 2.0 S 7 11 4 6 1016.5 - 9.4
17/06:00am 23.5 26.6 21.1 86 1.6 S 6 13 3 7 1016.0 1015.9 9.4
17/05:30am 22.5 26.9 21.4 93 0.7 CALM 0 0 0 0 1015.7 - 9.4
17/05:00am 22.7 27.2 21.5 93 0.8 CALM 0 0 0 0 1015.6 - 9.4
17/04:30am 22.9 26.6 21.4 91 1.0 SSW 4 7 2 4 1015.3 - 9.4
17/04:00am 22.8 26.6 21.7 93 0.7 NW 4 7 2 4 1015.5 - 9.4
17/03:30am 23.4 27.2 21.6 90 1.2 SW 4 9 2 5 1015.6 - 9.4
17/03:00am 23.4 27.2 21.6 90 1.2 SSE 4 11 2 6 1015.7 1015.6 9.4
17/02:30am 23.2 27.0 21.7 91 1.0 S 4 9 2 5 1016.0 - 9.4
17/02:00am 22.8 27.1 22.0 95 0.5 S 2 11 1 6 1016.3 - 9.4
17/01:30am 23.2 26.4 21.7 91 1.0 S 7 19 4 10 1016.9 - 9.2
17/01:00am 22.8 25.3 21.7 93 0.7 S 11 17 6 9 1017.3 - 9.2
17/12:30am 22.9 27.2 22.0 95 0.6 E 2 13 1 7 1017.7 - 4.4
17/12:00am 23.1 26.6 21.9 93 0.8 SSW 6 11 3 6 1018.0 1017.9 4.4
 
Date/Time
EST
Temp
°C
App
Temp
°C
Dew
Point
Rel
Hum
%
Delta-T
°C
Wind Press
QNH
hPa
Press
MSL
hPa
Rain
since 9 am
mm
Dir
 
Spd
km/h
Gust
km/h
Spd
kts
Gust
kts
16/11:30pm 23.2 27.3 21.5 90 1.1 SSE 2 9 1 5 1018.6 - 3.8
16/11:00pm 23.8 26.5 20.7 83 2.0 E 7 13 4 7 1018.6 - 2.6
16/10:30pm 23.8 26.4 21.2 85 1.7 S 9 17 5 9 1018.8 - 2.6
16/10:00pm 23.1 26.1 21.3 90 1.2 ESE 7 9 4 5 1018.8 - 2.6
16/09:30pm 23.2 26.1 21.7 91 1.0 SSE 9 19 5 10 1019.0 - 2.6
16/09:00pm 23.5 25.1 22.1 92 0.9 E 17 26 9 14 1018.8 1018.7 2.6
16/08:30pm 24.7 27.6 20.7 78 2.6 S 6 11 3 6 1018.3 - 1.6
16/08:00pm 24.1 27.4 20.7 81 2.2 SSE 4 9 2 5 1018.1 - 1.6
16/07:30pm 24.0 27.0 20.9 83 2.0 SE 6 9 3 5 1017.8 - 1.6
16/07:00pm 24.7 27.7 21.2 81 2.3 S 7 15 4 8 1017.4 - 1.6
16/06:30pm 23.9 28.4 21.6 87 1.5 CALM 0 4 0 2 1017.3 - 1.6
16/06:00pm 24.2 27.7 21.9 87 1.5 SSE 6 9 3 5 1017.1 1017.0 1.6
16/05:30pm 25.9 27.5 21.4 76 3.0 SE 15 24 8 13 1017.1 - 1.0
16/05:00pm 27.4 27.3 19.5 62 5.1 SE 19 32 10 17 1016.7 - 0.0
16/04:30pm 27.4 28.1 20.4 65 4.6 SE 17 24 9 13 1016.5 - 0.0
16/04:00pm 28.2 28.2 19.8 60 5.5 SE 19 26 10 14 1016.4 - 0.0
16/03:30pm 28.3 27.6 18.6 55 6.2 SE 20 33 11 18 1016.3 - 0.0
16/03:00pm 27.8 27.0 19.3 60 5.5 SE 22 37 12 20 1016.3 1016.2 0.0
16/02:30pm 28.2 27.9 19.6 59 5.6 ESE 20 35 11 19 1016.5 - 0.0
16/02:00pm 28.5 28.8 20.5 62 5.3 ESE 19 30 10 16 1016.7 - 0.0
16/01:30pm 28.7 28.1 19.8 58 5.8 SE 22 33 12 18 1016.9 - 0.0
16/01:00pm 28.5 27.8 19.6 58 5.8 ESE 22 32 12 17 1017.3 - 0.0
16/12:30pm 28.0 28.4 20.7 64 4.8 SE 19 30 10 16 1017.6 - 0.0
16/12:00pm 28.3 28.5 20.2 61 5.3 ESE 19 30 10 16 1017.9 1017.8 0.0
16/11:30am 28.6 29.0 20.7 62 5.2 ESE 19 30 10 16 1018.4 - 0.0

Other Formats:

Comma delimited format used in spreadsheet applications
http://www.bom.gov.au/fwo/IDQ60801/IDQ60801.95292.axf

JavaScript Object Notation format (JSON) in row-major order
http://www.bom.gov.au/fwo/IDQ60801/IDQ60801.95292.json